createdAt,value
2017-12-27T00:00:58.715Z,98662.05
2017-12-27T00:02:10.760Z,98652.52
2017-12-27T00:03:21.906Z,98647.90
2017-12-27T00:04:33.107Z,98640.75
2017-12-27T00:05:44.513Z,98641.95
2017-12-27T00:06:56.514Z,98639.57
2017-12-27T00:08:08.393Z,98633.68
2017-12-27T00:09:20.336Z,98635.26
2017-12-27T00:10:31.658Z,98634.11
2017-12-27T00:11:42.732Z,98637.72
2017-12-27T00:12:53.838Z,98637.05
2017-12-27T00:14:05.058Z,98633.34
2017-12-27T00:15:16.522Z,98633.06
2017-12-27T00:16:28.473Z,98619.17
2017-12-27T00:17:39.806Z,98617.28
2017-12-27T00:18:51.051Z,98624.95
2017-12-27T00:20:03.184Z,98622.16
2017-12-27T00:21:14.532Z,98618.12
2017-12-27T00:22:25.555Z,98618.36
2017-12-27T00:23:36.760Z,98621.20
2017-12-27T00:26:29.797Z,98614.84
2017-12-27T00:27:41.779Z,98616.38
2017-12-27T00:28:52.880Z,98617.14
2017-12-27T00:30:04.119Z,98617.42
2017-12-27T00:31:11.140Z,98619.88
2017-12-27T00:32:16.185Z,98618.05
2017-12-27T00:33:21.946Z,98617.02
2017-12-27T00:34:27.840Z,98616.77
2017-12-27T00:35:33.667Z,98612.31
2017-12-27T00:36:40.196Z,98606.55
2017-12-27T00:37:46.526Z,98604.68
2017-12-27T00:38:52.314Z,98607.13
2017-12-27T00:39:58.054Z,98602.67
2017-12-27T00:41:04.579Z,98599.16
2017-12-27T00:42:10.064Z,98599.95
2017-12-27T00:43:15.791Z,98589.53
2017-12-27T00:44:22.678Z,98598.13
2017-12-27T00:45:28.408Z,98599.84
2017-12-27T00:46:34.911Z,98606.27
2017-12-27T00:47:40.646Z,98605.34
2017-12-27T00:48:46.365Z,98600.19
2017-12-27T00:49:52.109Z,98597.59
2017-12-27T00:50:57.815Z,98585.48
2017-12-27T00:52:03.560Z,98586.25
2017-12-27T00:53:10.087Z,98594.47
2017-12-27T00:54:15.815Z,98590.61
2017-12-27T00:55:21.529Z,98592.86
2017-12-27T00:56:27.241Z,98595.42
2017-12-27T00:57:33.759Z,98585.41
2017-12-27T00:58:39.485Z,98577.70
2017-12-27T00:59:45.202Z,98578.77
2017-12-27T01:00:50.728Z,98577.47
2017-12-27T01:01:57.218Z,98571.92
2017-12-27T01:03:02.982Z,98576.81
2017-12-27T01:04:08.708Z,98576.39
2017-12-27T01:05:14.419Z,98580.70
2017-12-27T01:06:20.141Z,98583.61
2017-12-27T01:07:26.610Z,98586.31
2017-12-27T01:08:33.113Z,98585.94
2017-12-27T01:09:38.841Z,98584.75
2017-12-27T01:10:44.564Z,98585.52
2017-12-27T01:11:50.730Z,98582.54
2017-12-27T01:12:56.543Z,98581.73
2017-12-27T01:14:03.053Z,98574.82
2017-12-27T01:15:08.764Z,98580.20
2017-12-27T01:16:14.526Z,98581.11
2017-12-27T01:17:20.260Z,98584.63
2017-12-27T01:18:25.990Z,98586.07
2017-12-27T01:19:31.743Z,98581.75
2017-12-27T01:20:37.463Z,98580.92
2017-12-27T01:21:43.175Z,98585.30
2017-12-27T01:22:49.656Z,98578.08
2017-12-27T01:23:55.370Z,98573.31
2017-12-27T01:25:01.898Z,98567.39
2017-12-27T01:26:07.668Z,98568.16
2017-12-27T01:27:14.188Z,98567.77
2017-12-27T01:28:19.972Z,98570.20
2017-12-27T01:29:26.153Z,98563.38
2017-12-27T01:30:31.887Z,98563.17
2017-12-27T01:31:37.611Z,98565.39
2017-12-27T01:32:43.339Z,98564.30
2017-12-27T01:33:49.071Z,98562.73
2017-12-27T01:34:54.807Z,98555.06
2017-12-27T01:36:00.543Z,98554.64
2017-12-27T01:37:06.265Z,98564.52
2017-12-27T01:38:11.999Z,98556.25
2017-12-27T01:39:17.719Z,98555.91
2017-12-27T01:40:23.526Z,98552.30
2017-12-27T01:41:30.816Z,98552.76
2017-12-27T01:42:36.525Z,98552.48
2017-12-27T01:43:42.274Z,98544.53
2017-12-27T01:44:47.989Z,98536.83
2017-12-27T01:45:53.714Z,98539.00
2017-12-27T01:47:14.594Z,98533.92
2017-12-27T01:48:20.331Z,98537.23
2017-12-27T01:49:26.823Z,98533.26
2017-12-27T01:50:32.367Z,98529.68
2017-12-27T01:51:37.906Z,98532.23
2017-12-27T01:52:43.662Z,98527.66
2017-12-27T01:53:49.414Z,98525.90
2017-12-27T01:54:54.747Z,98525.41
2017-12-27T01:56:00.472Z,98530.63
2017-12-27T01:57:05.995Z,98526.46
2017-12-27T01:58:11.900Z,98522.64
2017-12-27T01:59:18.255Z,98522.61
2017-12-27T02:00:24.727Z,98520.58
2017-12-27T02:01:30.448Z,98520.62
2017-12-27T02:02:36.952Z,98519.92
2017-12-27T02:03:42.686Z,98521.47
2017-12-27T02:04:48.402Z,98517.02
2017-12-27T02:05:54.123Z,98511.90
2017-12-27T02:07:00.609Z,98509.88
2017-12-27T02:08:06.145Z,98508.45
2017-12-27T02:09:11.890Z,98505.95
2017-12-27T02:10:17.605Z,98499.66
2017-12-27T02:11:24.093Z,98499.23
2017-12-27T02:12:29.828Z,98494.47
2017-12-27T02:13:35.547Z,98494.19
2017-12-27T02:14:42.050Z,98493.88
2017-12-27T02:15:47.611Z,98488.70
2017-12-27T02:16:53.354Z,98485.44
2017-12-27T02:17:59.089Z,98485.59
2017-12-27T02:19:04.622Z,98479.67
2017-12-27T02:20:10.190Z,98477.42
2017-12-27T02:21:16.659Z,98472.13
2017-12-27T02:22:22.197Z,98476.86
2017-12-27T02:23:28.698Z,98469.61
2017-12-27T02:24:34.424Z,98464.88
2017-12-27T02:25:40.158Z,98468.35
2017-12-27T02:26:45.889Z,98475.67
2017-12-27T02:27:51.601Z,98469.61
2017-12-27T02:28:57.668Z,98470.56
2017-12-27T02:30:04.150Z,98467.78
2017-12-27T02:31:09.876Z,98469.61
2017-12-27T02:32:15.667Z,98471.67
2017-12-27T02:33:21.200Z,98467.89
2017-12-27T02:34:26.923Z,98468.42
2017-12-27T02:35:32.651Z,98463.59
2017-12-27T02:36:38.475Z,98465.30
2017-12-27T02:37:44.962Z,98466.14
2017-12-27T02:38:57.566Z,98461.34
2017-12-27T02:41:42.113Z,98454.09
2017-12-27T02:42:47.638Z,98444.56
2017-12-27T02:43:53.309Z,98441.90
2017-12-27T02:44:59.040Z,98438.44
2017-12-27T02:46:04.828Z,98444.56
2017-12-27T02:47:10.591Z,98439.66
2017-12-27T02:48:17.064Z,98436.11
2017-12-27T02:49:22.780Z,98426.89
2017-12-27T02:50:29.275Z,98428.11
2017-12-27T02:51:35.005Z,98426.70
2017-12-27T02:52:40.744Z,98414.13
2017-12-27T02:53:46.472Z,98419.46
2017-12-27T02:54:52.235Z,98414.55
2017-12-27T02:55:58.053Z,98404.14
2017-12-27T02:57:04.518Z,98397.62
2017-12-27T02:58:10.269Z,98400.70
2017-12-27T02:59:15.971Z,98402.46
2017-12-27T03:00:21.679Z,98394.03
2017-12-27T03:01:27.427Z,98388.27
2017-12-27T03:02:33.146Z,98388.13
2017-12-27T03:03:38.905Z,98381.56
2017-12-27T03:04:44.666Z,98383.39
2017-12-27T03:05:51.186Z,98376.04
2017-12-27T03:06:57.146Z,98377.80
2017-12-27T03:08:02.875Z,98376.42
2017-12-27T03:09:08.667Z,98378.33
2017-12-27T03:10:14.465Z,98366.70
2017-12-27T03:11:20.190Z,98372.88
2017-12-27T03:12:25.891Z,98369.44
2017-12-27T03:13:31.618Z,98363.80
2017-12-27T03:14:38.886Z,98372.95
2017-12-27T03:15:44.593Z,98370.55
2017-12-27T03:16:50.304Z,98368.08
2017-12-27T03:17:56.812Z,98362.20
2017-12-27T03:19:02.536Z,98355.15
2017-12-27T03:20:08.290Z,98360.34
2017-12-27T03:21:14.008Z,98353.28
2017-12-27T03:22:19.732Z,98353.55
2017-12-27T03:23:26.272Z,98343.90
2017-12-27T03:24:31.980Z,98346.95
2017-12-27T03:25:37.747Z,98334.41
2017-12-27T03:26:44.242Z,98326.63
2017-12-27T03:27:49.966Z,98324.78
2017-12-27T03:28:56.458Z,98331.08
2017-12-27T03:30:02.180Z,98327.48
2017-12-27T03:31:07.915Z,98325.63
2017-12-27T03:32:14.387Z,98321.42
2017-12-27T03:33:20.122Z,98322.80
2017-12-27T03:34:25.842Z,98322.48
2017-12-27T03:35:32.346Z,98318.44
2017-12-27T03:36:38.106Z,98314.63
2017-12-27T03:37:43.887Z,98314.52
2017-12-27T03:38:51.052Z,98315.55
2017-12-27T03:39:56.779Z,98317.22
2017-12-27T03:41:02.502Z,98316.13
2017-12-27T03:42:08.260Z,98314.98
2017-12-27T03:43:14.002Z,98309.03
2017-12-27T03:44:19.703Z,98298.61
2017-12-27T03:45:25.420Z,98300.59
2017-12-27T03:46:31.146Z,98295.61
2017-12-27T03:47:37.675Z,98282.72
2017-12-27T03:48:43.379Z,98279.97
2017-12-27T03:49:49.117Z,98271.48
2017-12-27T03:50:54.825Z,98269.34
2017-12-27T03:52:01.050Z,98263.66
2017-12-27T03:53:06.798Z,98265.79
2017-12-27T03:54:12.523Z,98262.78
2017-12-27T03:55:18.237Z,98257.89
2017-12-27T03:56:23.957Z,98257.05
2017-12-27T03:57:29.699Z,98254.58
2017-12-27T03:58:35.450Z,98245.31
2017-12-27T03:59:41.177Z,98241.34
2017-12-27T04:00:47.666Z,98243.33
2017-12-27T04:01:53.443Z,98243.25
2017-12-27T04:02:59.967Z,98235.05
2017-12-27T04:04:05.734Z,98236.30
2017-12-27T04:05:11.445Z,98225.36
2017-12-27T04:06:17.200Z,98226.23
2017-12-27T04:07:22.921Z,98227.91
2017-12-27T04:08:28.658Z,98221.92
2017-12-27T04:09:34.418Z,98212.60
2017-12-27T04:10:40.166Z,98216.30
2017-12-27T04:11:45.892Z,98210.19
2017-12-27T04:12:51.622Z,98209.02
2017-12-27T04:13:57.346Z,98204.67
2017-12-27T04:15:03.103Z,98196.30
2017-12-27T04:16:08.834Z,98201.33
2017-12-27T04:17:15.322Z,98194.47
2017-12-27T04:18:21.051Z,98194.34
2017-12-27T04:19:26.874Z,98197.86
2017-12-27T04:20:33.387Z,98188.91
2017-12-27T04:21:39.175Z,98191.00
2017-12-27T04:22:45.645Z,98189.58
2017-12-27T04:23:51.379Z,98188.42
2017-12-27T04:24:57.150Z,98190.73
2017-12-27T04:26:02.905Z,98191.11
2017-12-27T04:27:08.631Z,98192.83
2017-12-27T04:28:14.336Z,98182.45
2017-12-27T04:29:20.816Z,98174.55
2017-12-27T04:30:26.550Z,98178.77
2017-12-27T04:31:32.305Z,98175.84
2017-12-27T04:32:38.026Z,98171.53
2017-12-27T04:33:43.739Z,98168.86
2017-12-27T04:34:50.237Z,98164.17
2017-12-27T04:35:56.025Z,98165.88
2017-12-27T04:37:01.785Z,98161.69
2017-12-27T04:38:08.277Z,98160.81
2017-12-27T04:39:13.987Z,98157.00
2017-12-27T04:40:20.476Z,98158.63
2017-12-27T04:41:26.184Z,98164.28
2017-12-27T04:42:32.700Z,98162.98
2017-12-27T04:43:38.411Z,98164.03
2017-12-27T04:44:44.119Z,98165.79
2017-12-27T04:45:49.888Z,98165.11
2017-12-27T04:46:55.409Z,98163.52
2017-12-27T04:48:01.926Z,98169.88
2017-12-27T04:49:07.820Z,98164.36
2017-12-27T04:50:14.310Z,98164.31
2017-12-27T04:51:20.025Z,98157.61
2017-12-27T04:52:25.751Z,98157.20
2017-12-27T04:53:32.247Z,98151.78
2017-12-27T04:54:37.991Z,98151.41
2017-12-27T04:55:43.696Z,98149.61
2017-12-27T04:56:50.007Z,98147.89
2017-12-27T04:57:55.768Z,98145.89
2017-12-27T04:59:01.536Z,98144.17
2017-12-27T05:00:08.086Z,98144.75
2017-12-27T05:01:14.561Z,98145.52
2017-12-27T05:02:20.278Z,98142.70
2017-12-27T05:03:26.780Z,98140.38
2017-12-27T05:04:32.545Z,98133.11
2017-12-27T05:05:38.279Z,98135.86
2017-12-27T05:06:43.987Z,98132.84
2017-12-27T05:07:49.722Z,98126.48
2017-12-27T05:08:55.268Z,98128.66
2017-12-27T05:10:01.031Z,98121.04
2017-12-27T05:11:06.570Z,98121.45
2017-12-27T05:12:12.271Z,98119.78
2017-12-27T05:13:17.987Z,98123.30
2017-12-27T05:14:23.579Z,98116.06
2017-12-27T05:15:29.149Z,98113.47
2017-12-27T05:16:34.882Z,98110.95
2017-12-27T05:17:40.898Z,98111.34
2017-12-27T05:18:46.623Z,98106.77
2017-12-27T05:19:52.328Z,98107.27
2017-12-27T05:20:57.900Z,98113.48
2017-12-27T05:22:03.631Z,98115.62
2017-12-27T05:23:10.122Z,98115.24
2017-12-27T05:24:15.855Z,98107.92
2017-12-27T05:25:21.647Z,98104.41
2017-12-27T05:26:27.204Z,98104.73
2017-12-27T05:27:33.684Z,98100.42
2017-12-27T05:28:39.540Z,98096.50
2017-12-27T05:29:45.256Z,98095.28
2017-12-27T05:30:51.730Z,98090.52
2017-12-27T05:31:57.299Z,98089.22
2017-12-27T05:33:03.066Z,98087.05
2017-12-27T05:34:08.775Z,98085.38
2017-12-27T05:35:14.522Z,98087.00
2017-12-27T05:36:20.253Z,98090.73
2017-12-27T05:37:26.008Z,98076.39
2017-12-27T05:38:31.754Z,98082.17
2017-12-27T05:39:37.482Z,98071.77
2017-12-27T05:40:43.187Z,98074.91
2017-12-27T05:41:48.904Z,98070.60
2017-12-27T05:42:55.462Z,98066.92
2017-12-27T05:44:01.939Z,98069.66
2017-12-27T05:45:07.657Z,98069.16
2017-12-27T05:46:14.171Z,98063.50
2017-12-27T05:47:19.887Z,98064.38
2017-12-27T05:48:25.624Z,98061.66
2017-12-27T05:49:31.335Z,98066.84
2017-12-27T05:50:37.843Z,98064.72
2017-12-27T05:51:43.546Z,98052.25
2017-12-27T05:52:50.039Z,98055.52
2017-12-27T05:53:55.775Z,98060.71
2017-12-27T05:55:01.322Z,98050.16
2017-12-27T05:56:07.050Z,98048.87
2017-12-27T05:57:12.598Z,98050.13
2017-12-27T05:58:18.347Z,98046.95
2017-12-27T05:59:24.158Z,98042.42
2017-12-27T06:00:30.639Z,98043.30
2017-12-27T06:01:36.371Z,98037.58
2017-12-27T06:02:42.101Z,98035.86
2017-12-27T06:03:47.497Z,98037.08
2017-12-27T06:04:54.025Z,98025.82
2017-12-27T06:05:59.754Z,98030.88
2017-12-27T06:07:05.482Z,98030.63
2017-12-27T06:08:11.206Z,98022.52
2017-12-27T06:09:17.366Z,98024.19
2017-12-27T06:10:23.131Z,98034.73
2017-12-27T06:11:28.863Z,98025.98
2017-12-27T06:12:34.573Z,98028.16
2017-12-27T06:13:41.061Z,98022.52
2017-12-27T06:14:46.888Z,98022.14
2017-12-27T06:15:53.410Z,98028.79
2017-12-27T06:16:59.944Z,98026.57
2017-12-27T06:18:05.875Z,98018.41
2017-12-27T06:19:11.614Z,98016.23
2017-12-27T06:20:17.342Z,98018.87
2017-12-27T06:21:22.892Z,98013.02
2017-12-27T06:22:28.793Z,98010.05
2017-12-27T06:23:34.782Z,98011.84
2017-12-27T06:24:40.518Z,98006.20
2017-12-27T06:25:46.315Z,98012.47
2017-12-27T06:26:52.086Z,98016.28
2017-12-27T06:27:58.626Z,98011.98
2017-12-27T06:29:05.129Z,98006.20
2017-12-27T06:30:10.843Z,98004.23
2017-12-27T06:31:17.331Z,98002.30
2017-12-27T06:32:23.086Z,98003.60
2017-12-27T06:33:28.800Z,97997.70
2017-12-27T06:34:34.528Z,98007.66
2017-12-27T06:35:40.839Z,98004.66
2017-12-27T06:36:46.567Z,98010.25
2017-12-27T06:37:52.316Z,98011.67
2017-12-27T06:38:58.028Z,98004.70
2017-12-27T06:40:03.778Z,98004.98
2017-12-27T06:41:09.497Z,98002.48
2017-12-27T06:42:15.207Z,98003.36
2017-12-27T06:43:21.731Z,97996.92
2017-12-27T06:44:27.461Z,97990.56
2017-12-27T06:45:33.177Z,97985.62
2017-12-27T06:46:38.915Z,97983.95
2017-12-27T06:47:44.639Z,97984.20
2017-12-27T06:48:51.135Z,97980.06
2017-12-27T06:49:56.867Z,97982.10
2017-12-27T06:51:02.572Z,97980.64
2017-12-27T06:52:09.053Z,97986.75
2017-12-27T06:53:14.789Z,97980.64
2017-12-27T06:54:21.309Z,97981.48
2017-12-27T06:55:27.037Z,97981.22
2017-12-27T06:56:32.784Z,97971.40
2017-12-27T06:57:38.500Z,97964.13
2017-12-27T06:58:44.231Z,97967.09
2017-12-27T06:59:49.982Z,97961.62
2017-12-27T07:00:55.719Z,97954.38
2017-12-27T07:02:01.456Z,97946.06
2017-12-27T07:03:06.993Z,97952.29
2017-12-27T07:04:12.711Z,97951.41
2017-12-27T07:05:18.461Z,97944.42
2017-12-27T07:06:24.207Z,97949.19
2017-12-27T07:07:29.939Z,97947.02
2017-12-27T07:08:35.685Z,97948.19
2017-12-27T07:09:41.397Z,97939.02
2017-12-27T07:10:47.146Z,97939.31
2017-12-27T07:11:53.639Z,97938.98
2017-12-27T07:12:59.376Z,97932.75
2017-12-27T07:14:05.135Z,97941.23
2017-12-27T07:15:10.848Z,97944.16
2017-12-27T07:16:16.587Z,97942.32
2017-12-27T07:17:22.324Z,97937.80
2017-12-27T07:18:28.814Z,97939.76
2017-12-27T07:19:34.529Z,97939.09
2017-12-27T07:20:40.263Z,97934.02
2017-12-27T07:21:46.049Z,97935.73
2017-12-27T07:22:51.755Z,97935.69
2017-12-27T07:23:57.521Z,97936.11
2017-12-27T07:25:03.243Z,97934.87
2017-12-27T07:26:08.962Z,97931.56
2017-12-27T07:27:15.325Z,97929.71
2017-12-27T07:28:21.811Z,97931.08
2017-12-27T07:29:27.595Z,97927.48
2017-12-27T07:30:33.346Z,97924.33
2017-12-27T07:31:39.078Z,97924.02
2017-12-27T07:32:44.830Z,97928.63
2017-12-27T07:33:51.367Z,97926.98
2017-12-27T07:34:57.101Z,97924.16
2017-12-27T07:36:02.818Z,97926.98
2017-12-27T07:37:08.387Z,97920.37
2017-12-27T07:38:14.028Z,97917.73
2017-12-27T07:39:19.754Z,97918.06
2017-12-27T07:40:25.294Z,97912.61
2017-12-27T07:41:30.840Z,97916.24
2017-12-27T07:42:37.404Z,97916.61
2017-12-27T07:43:43.187Z,97914.70
2017-12-27T07:44:48.914Z,97915.16
2017-12-27T07:45:55.396Z,97909.97
2017-12-27T07:47:00.954Z,97911.58
2017-12-27T07:48:06.688Z,97908.00
2017-12-27T07:49:12.471Z,97903.88
2017-12-27T07:50:19.720Z,97907.86
2017-12-27T07:51:25.270Z,97906.78
2017-12-27T07:52:30.812Z,97900.39
2017-12-27T07:53:36.532Z,97891.72
2017-12-27T07:54:42.106Z,97887.48
2017-12-27T07:55:47.653Z,97891.30
2017-12-27T07:56:54.157Z,97884.52
2017-12-27T07:57:59.802Z,97881.08
2017-12-27T07:59:05.517Z,97879.95
2017-12-27T08:00:11.225Z,97879.73
2017-12-27T08:01:17.637Z,97874.30
2017-12-27T08:02:23.174Z,97865.53
2017-12-27T08:03:28.787Z,97865.90
2017-12-27T08:04:34.554Z,97860.66
2017-12-27T08:05:40.551Z,97864.02
2017-12-27T08:06:47.101Z,97863.09
2017-12-27T08:07:53.581Z,97864.61
2017-12-27T08:09:00.180Z,97864.45
2017-12-27T08:10:05.892Z,97872.94
2017-12-27T08:11:11.684Z,97881.77
2017-12-27T08:12:17.415Z,97887.92
2017-12-27T08:13:23.128Z,97883.33
2017-12-27T08:14:28.910Z,97892.86
2017-12-27T08:15:34.632Z,97880.61
2017-12-27T08:16:40.470Z,97871.54
2017-12-27T08:17:46.294Z,97872.00
2017-12-27T08:18:52.026Z,97871.88
2017-12-27T08:19:57.756Z,97867.02
2017-12-27T08:21:04.254Z,97853.95
2017-12-27T08:22:10.016Z,97852.88
2017-12-27T08:23:15.732Z,97848.73
2017-12-27T08:24:21.471Z,97848.69
2017-12-27T08:25:27.501Z,97850.88
2017-12-27T08:26:33.207Z,97853.35
2017-12-27T08:27:38.943Z,97857.06
2017-12-27T08:28:44.684Z,97853.36
2017-12-27T08:29:51.182Z,97855.65
2017-12-27T08:30:56.940Z,97842.83
2017-12-27T08:32:02.692Z,97843.81
2017-12-27T08:33:08.423Z,97841.22
2017-12-27T08:34:14.172Z,97843.63
2017-12-27T08:35:20.182Z,97844.05
2017-12-27T08:36:26.032Z,97843.20
2017-12-27T08:37:31.744Z,97844.69
2017-12-27T08:38:37.563Z,97844.92
2017-12-27T08:39:43.299Z,97845.53
2017-12-27T08:40:49.016Z,97849.43
2017-12-27T08:41:54.739Z,97846.22
2017-12-27T08:43:00.467Z,97851.19
2017-12-27T08:44:07.044Z,97847.81
2017-12-27T08:45:12.989Z,97842.05
2017-12-27T08:46:18.779Z,97844.36
2017-12-27T08:47:24.522Z,97836.66
2017-12-27T08:48:30.295Z,97827.02
2017-12-27T08:49:36.864Z,97828.41
2017-12-27T08:50:42.642Z,97821.92
2017-12-27T08:51:48.396Z,97820.03
2017-12-27T08:52:54.151Z,97817.62
2017-12-27T08:54:00.142Z,97809.98
2017-12-27T08:55:05.881Z,97807.67
2017-12-27T08:56:11.617Z,97808.22
2017-12-27T08:57:18.271Z,97802.30
2017-12-27T08:58:25.044Z,97802.44
2017-12-27T08:59:31.693Z,97804.98
2017-12-27T09:00:38.996Z,97795.82
2017-12-27T09:01:44.953Z,97800.73
2017-12-27T09:02:50.783Z,97800.87
2017-12-27T09:03:56.557Z,97797.95
2017-12-27T09:05:02.276Z,97798.60
2017-12-27T09:06:08.103Z,97803.14
2017-12-27T09:07:13.856Z,97794.61
2017-12-27T09:08:19.635Z,97796.84
2017-12-27T09:09:25.347Z,97791.84
2017-12-27T09:10:31.076Z,97783.44
2017-12-27T09:11:36.830Z,97788.63
2017-12-27T09:12:42.564Z,97780.73
2017-12-27T09:13:48.369Z,97788.58
2017-12-27T09:14:54.874Z,97788.25
2017-12-27T09:16:01.215Z,97785.89
2017-12-27T09:17:07.142Z,97780.12
2017-12-27T09:18:13.014Z,97776.47
2017-12-27T09:19:20.246Z,97783.05
2017-12-27T09:20:26.865Z,97784.35
2017-12-27T09:21:32.831Z,97790.70
2017-12-27T09:22:38.714Z,97787.53
2017-12-27T09:23:44.484Z,97786.98
2017-12-27T09:24:50.236Z,97783.49
2017-12-27T09:25:55.980Z,97782.05
2017-12-27T09:27:02.359Z,97782.80
2017-12-27T09:28:08.178Z,97778.95
2017-12-27T09:29:13.906Z,97778.33
2017-12-27T09:30:19.629Z,97771.91
2017-12-27T09:31:25.779Z,97768.66
2017-12-27T09:32:31.557Z,97769.77
2017-12-27T09:33:37.357Z,97769.16
2017-12-27T09:34:43.858Z,97762.59
2017-12-27T09:35:49.412Z,97759.78
2017-12-27T09:36:55.117Z,97757.62
2017-12-27T09:38:00.834Z,97760.87
2017-12-27T09:39:07.353Z,97755.99
2017-12-27T09:40:13.068Z,97754.98
2017-12-27T09:41:18.808Z,97754.98
2017-12-27T09:42:24.575Z,97759.76
2017-12-27T09:43:30.328Z,97764.91
2017-12-27T09:44:36.857Z,97753.47
2017-12-27T09:45:42.580Z,97750.34
2017-12-27T09:46:48.341Z,97750.24
2017-12-27T09:47:54.669Z,97749.73
2017-12-27T09:49:00.588Z,97746.73
2017-12-27T09:50:07.153Z,97740.36
2017-12-27T09:51:14.656Z,97741.77
2017-12-27T09:52:20.385Z,97739.00
2017-12-27T09:53:26.935Z,97741.31
2017-12-27T09:54:33.610Z,97735.72
2017-12-27T09:55:39.381Z,97738.16
2017-12-27T09:56:45.194Z,97733.83
2017-12-27T09:57:51.832Z,97733.52
2017-12-27T09:58:57.636Z,97729.00
2017-12-27T10:00:03.442Z,97720.28
2017-12-27T10:01:09.202Z,97715.97
2017-12-27T10:02:14.971Z,97716.80
2017-12-27T10:03:20.750Z,97716.44
2017-12-27T10:04:27.240Z,97712.55
2017-12-27T10:05:33.002Z,97717.34
2017-12-27T10:06:38.760Z,97712.14
2017-12-27T10:07:44.502Z,97710.95
2017-12-27T10:08:50.249Z,97703.67
2017-12-27T10:09:55.976Z,97701.44
2017-12-27T10:11:01.721Z,97705.61
2017-12-27T10:12:07.460Z,97703.43
2017-12-27T10:13:13.444Z,97699.66
2017-12-27T10:14:20.943Z,97695.09
2017-12-27T10:15:26.695Z,97688.36
2017-12-27T10:16:32.432Z,97686.64
2017-12-27T10:17:38.187Z,97685.56
2017-12-27T10:18:43.914Z,97677.39
2017-12-27T10:19:49.864Z,97667.59
2017-12-27T10:20:55.391Z,97670.95
2017-12-27T10:22:01.133Z,97662.39
2017-12-27T10:23:06.921Z,97658.81
2017-12-27T10:24:12.632Z,97659.48
2017-12-27T10:25:18.447Z,97653.72
2017-12-27T10:26:24.940Z,97659.23
2017-12-27T10:27:30.680Z,97657.72
2017-12-27T10:28:36.700Z,97646.82
2017-12-27T10:29:42.495Z,97645.94
2017-12-27T10:30:48.206Z,97641.70
2017-12-27T10:31:53.741Z,97639.93
2017-12-27T10:33:00.097Z,97634.41
2017-12-27T10:34:05.885Z,97632.98
2017-12-27T10:35:12.228Z,97630.00
2017-12-27T10:36:17.957Z,97632.28
2017-12-27T10:37:23.574Z,97630.34
2017-12-27T10:38:29.325Z,97627.43
2017-12-27T10:39:34.984Z,97626.38
2017-12-27T10:40:40.760Z,97626.38
2017-12-27T10:41:47.077Z,97626.11
2017-12-27T10:42:52.622Z,97618.70
2017-12-27T10:43:58.366Z,97613.89
2017-12-27T10:45:03.998Z,97615.05
2017-12-27T10:46:09.708Z,97609.30
2017-12-27T10:47:15.330Z,97604.59
2017-12-27T10:48:21.080Z,97598.91
2017-12-27T10:49:26.814Z,97601.66
2017-12-27T10:50:32.606Z,97600.95
2017-12-27T10:51:38.339Z,97598.23
2017-12-27T10:52:43.932Z,97590.30
2017-12-27T10:53:49.525Z,97590.44
2017-12-27T10:54:55.113Z,97595.66
2017-12-27T10:56:00.691Z,97582.73
2017-12-27T10:57:06.410Z,97583.16
2017-12-27T10:58:12.168Z,97582.91
2017-12-27T10:59:17.684Z,97581.91
2017-12-27T11:00:23.422Z,97576.13
2017-12-27T11:01:29.211Z,97578.33
2017-12-27T11:02:34.940Z,97577.67
2017-12-27T11:03:40.695Z,97573.61
2017-12-27T11:04:46.454Z,97572.63
2017-12-27T11:05:52.979Z,97574.77
2017-12-27T11:06:59.649Z,97571.39
2017-12-27T11:08:05.381Z,97571.39
2017-12-27T11:09:11.663Z,97571.73
2017-12-27T11:10:18.145Z,97572.38
2017-12-27T11:11:24.922Z,97572.97
2017-12-27T11:12:30.675Z,97569.67
2017-12-27T11:13:36.432Z,97573.31
2017-12-27T11:14:42.163Z,97568.63
2017-12-27T11:15:47.936Z,97568.33
2017-12-27T11:16:53.651Z,97560.06
2017-12-27T11:17:59.585Z,97554.84
2017-12-27T11:19:05.332Z,97544.67
2017-12-27T11:20:11.075Z,97540.80
2017-12-27T11:21:16.806Z,97533.79
2017-12-27T11:22:22.548Z,97533.47
2017-12-27T11:23:28.308Z,97540.92
2017-12-27T11:24:34.035Z,97537.55
2017-12-27T11:25:39.759Z,97529.02
2017-12-27T11:26:45.499Z,97528.76
2017-12-27T11:27:51.219Z,97517.23
2017-12-27T11:28:56.705Z,97519.11
2017-12-27T11:30:02.437Z,97513.21
2017-12-27T11:31:08.151Z,97515.31
2017-12-27T11:32:14.641Z,97514.57
2017-12-27T11:33:20.366Z,97521.41
2017-12-27T11:34:26.144Z,97510.55
2017-12-27T11:35:31.691Z,97514.69
2017-12-27T11:36:37.482Z,97511.49
2017-12-27T11:37:43.269Z,97514.09
2017-12-27T11:38:49.007Z,97514.28
2017-12-27T11:39:54.744Z,97518.19
2017-12-27T11:41:00.457Z,97517.39
2017-12-27T11:42:06.206Z,97512.02
2017-12-27T11:43:11.967Z,97510.95
2017-12-27T11:44:17.938Z,97502.33
2017-12-27T11:45:23.687Z,97512.08
2017-12-27T11:46:29.411Z,97510.17
2017-12-27T11:47:34.923Z,97505.52
2017-12-27T11:48:40.666Z,97498.25
2017-12-27T11:49:46.388Z,97497.24
2017-12-27T11:50:52.198Z,97498.67
2017-12-27T11:51:57.943Z,97502.52
2017-12-27T11:53:04.516Z,97507.32
2017-12-27T11:54:10.661Z,97511.94
2017-12-27T11:55:17.464Z,97510.52
2017-12-27T11:56:23.441Z,97504.97
2017-12-27T11:57:29.349Z,97507.19
2017-12-27T11:58:36.325Z,97496.83
2017-12-27T11:59:42.275Z,97496.73
2017-12-27T12:00:47.985Z,97498.19
2017-12-27T12:01:53.562Z,97494.44
2017-12-27T12:02:59.286Z,97499.11
2017-12-27T12:04:05.018Z,97484.39
2017-12-27T12:05:10.747Z,97484.50
2017-12-27T12:06:16.459Z,97486.65
2017-12-27T12:07:31.049Z,97478.41
2017-12-27T12:08:38.211Z,97469.99
2017-12-27T12:09:45.050Z,97476.28
2017-12-27T12:10:52.387Z,97468.79
2017-12-27T12:11:58.138Z,97469.59
2017-12-27T12:13:04.085Z,97461.64
2017-12-27T12:14:09.810Z,97455.75
2017-12-27T12:15:15.536Z,97461.80
2017-12-27T12:16:21.318Z,97460.69
2017-12-27T12:17:27.053Z,97458.95
2017-12-27T12:18:34.450Z,97456.34
2017-12-27T12:19:42.263Z,97460.66
2017-12-27T12:20:48.225Z,97462.04
2017-12-27T12:21:54.210Z,97463.94
2017-12-27T12:23:00.197Z,97458.23
2017-12-27T12:24:07.353Z,97456.37
2017-12-27T12:25:13.287Z,97456.25
2017-12-27T12:26:19.572Z,116305.72
2017-12-27T12:27:26.543Z,116305.72
2017-12-27T12:28:32.102Z,116305.72
2017-12-27T12:29:38.028Z,116305.72
2017-12-27T12:30:43.922Z,116305.72
2017-12-27T12:31:50.584Z,116305.72
2017-12-27T12:32:56.546Z,116305.72
2017-12-27T12:34:02.693Z,116305.72
2017-12-27T12:35:09.609Z,116305.72
2017-12-27T12:36:15.441Z,116305.72
2017-12-27T12:37:22.172Z,116305.72
2017-12-27T12:38:28.344Z,116305.72
2017-12-27T12:39:34.420Z,116305.72
2017-12-27T12:40:40.418Z,116305.72
2017-12-27T12:41:46.484Z,116305.72
2017-12-27T12:42:53.680Z,116305.72
2017-12-27T12:44:00.489Z,116305.72
2017-12-27T12:45:07.787Z,116305.72
2017-12-27T12:46:13.715Z,116305.72
2017-12-27T12:47:19.774Z,116305.72
2017-12-27T12:48:25.569Z,116305.72
2017-12-27T12:49:31.363Z,116305.72
2017-12-27T12:50:37.159Z,116305.72
2017-12-27T12:51:43.016Z,116305.72
2017-12-27T12:52:48.810Z,116305.72
2017-12-27T12:53:55.718Z,116305.72
2017-12-27T12:55:03.668Z,116305.72
2017-12-27T12:56:10.361Z,116305.72
2017-12-27T12:57:16.222Z,116305.72
2017-12-27T12:58:22.229Z,116305.72
2017-12-27T12:59:28.309Z,116305.72